createdAt,value
2022-08-12T00:01:04.645Z,100.00
2022-08-12T00:03:51.544Z,100.00
2022-08-12T00:06:39.776Z,100.00
2022-08-12T00:09:26.830Z,100.00
2022-08-12T00:12:13.210Z,100.00
2022-08-12T00:14:59.040Z,100.00
2022-08-12T00:17:44.938Z,100.00
2022-08-12T00:20:30.466Z,100.00
2022-08-12T00:23:17.443Z,100.00
2022-08-12T00:26:22.993Z,100.00
2022-08-12T00:29:12.233Z,100.00
2022-08-12T00:32:00.461Z,100.00
2022-08-12T00:34:49.042Z,100.00
2022-08-12T00:37:35.657Z,100.00
2022-08-12T00:40:24.700Z,100.00
2022-08-12T00:42:54.012Z,100.00
2022-08-12T00:45:21.145Z,100.00
2022-08-12T00:47:52.074Z,100.00
2022-08-12T00:50:21.638Z,100.00
2022-08-12T00:52:52.137Z,100.00
2022-08-12T00:55:20.217Z,100.00
2022-08-12T00:57:50.537Z,100.00
2022-08-12T01:00:23.146Z,100.00
2022-08-12T01:02:55.693Z,100.00
2022-08-12T01:05:43.658Z,100.00
2022-08-12T01:08:50.001Z,100.00
2022-08-12T01:11:32.605Z,100.00
2022-08-12T01:14:02.052Z,100.00
2022-08-12T01:16:29.426Z,100.00
2022-08-12T01:18:58.780Z,100.00
2022-08-12T01:21:46.931Z,100.00
2022-08-12T01:24:57.249Z,100.00
2022-08-12T01:27:27.276Z,100.00
2022-08-12T01:29:56.235Z,100.00
2022-08-12T01:32:27.037Z,100.00
2022-08-12T01:35:13.466Z,100.00
2022-08-12T01:37:58.732Z,100.00
2022-08-12T01:40:36.545Z,100.00
2022-08-12T01:43:10.937Z,100.00
2022-08-12T01:45:54.562Z,100.00
2022-08-12T01:48:50.390Z,100.00
2022-08-12T01:52:20.996Z,100.00
2022-08-12T01:54:43.937Z,100.00
2022-08-12T01:57:58.827Z,100.00
2022-08-12T02:00:15.018Z,100.00
2022-08-12T02:03:04.689Z,100.00
2022-08-12T02:06:22.045Z,100.00
2022-08-12T02:09:17.627Z,100.00
2022-08-12T02:12:06.222Z,100.00
2022-08-12T02:14:57.427Z,100.00
2022-08-12T02:17:55.029Z,100.00
2022-08-12T02:20:52.054Z,100.00
2022-08-12T02:23:27.120Z,100.00
2022-08-12T02:25:59.588Z,100.00
2022-08-12T02:28:27.306Z,100.00
2022-08-12T02:30:55.303Z,100.00
2022-08-12T02:33:23.407Z,100.00
2022-08-12T02:35:51.700Z,100.00
2022-08-12T02:38:21.673Z,100.00
2022-08-12T02:40:54.860Z,100.00
2022-08-12T02:43:41.464Z,100.00
2022-08-12T02:46:14.516Z,100.00
2022-08-12T02:48:56.009Z,100.00
2022-08-12T02:51:31.354Z,100.00
2022-08-12T02:54:05.403Z,100.00
2022-08-12T02:56:40.800Z,100.00
2022-08-12T02:59:11.976Z,100.00
2022-08-12T03:02:05.825Z,100.00
2022-08-12T03:04:56.583Z,100.00
2022-08-12T03:07:49.328Z,100.00
2022-08-12T03:10:17.646Z,100.00
2022-08-12T03:12:49.402Z,100.00
2022-08-12T03:15:22.926Z,100.00
2022-08-12T03:18:26.069Z,100.00
2022-08-12T03:20:54.690Z,100.00
2022-08-12T03:23:29.924Z,100.00
2022-08-12T03:26:01.437Z,100.00
2022-08-12T03:28:52.920Z,100.00
2022-08-12T03:31:33.700Z,100.00
2022-08-12T03:34:14.262Z,100.00
2022-08-12T03:36:42.827Z,100.00
2022-08-12T03:39:16.627Z,100.00
2022-08-12T03:42:17.093Z,100.00
2022-08-12T03:45:50.032Z,100.00
2022-08-12T03:48:39.537Z,100.00
2022-08-12T03:51:26.662Z,100.00
2022-08-12T03:54:12.619Z,100.00
2022-08-12T03:56:58.793Z,100.00
2022-08-12T03:59:45.264Z,100.00
2022-08-12T04:02:17.772Z,100.00
2022-08-12T04:04:46.620Z,100.00
2022-08-12T04:07:16.450Z,100.00
2022-08-12T04:09:45.644Z,100.00
2022-08-12T04:12:32.642Z,100.00
2022-08-12T04:15:01.564Z,100.00
2022-08-12T04:17:29.736Z,100.00
2022-08-12T04:19:58.002Z,100.00
2022-08-12T04:22:30.234Z,100.00
2022-08-12T04:25:02.591Z,100.00
2022-08-12T04:27:32.267Z,100.00
2022-08-12T04:30:21.181Z,100.00
2022-08-12T04:32:52.160Z,100.00
2022-08-12T04:35:21.317Z,100.00
2022-08-12T04:37:59.227Z,100.00
2022-08-12T04:40:31.047Z,100.00
2022-08-12T04:43:01.095Z,100.00
2022-08-12T04:45:30.318Z,100.00
2022-08-12T04:47:57.396Z,100.00
2022-08-12T04:50:35.324Z,100.00
2022-08-12T04:53:08.360Z,100.00
2022-08-12T04:55:38.636Z,100.00
2022-08-12T04:58:09.464Z,100.00
2022-08-12T05:00:38.157Z,100.00
2022-08-12T05:03:07.385Z,100.00
2022-08-12T05:05:36.579Z,100.00
2022-08-12T05:08:07.807Z,100.00
2022-08-12T05:10:35.758Z,100.00
2022-08-12T05:13:09.394Z,100.00
2022-08-12T05:16:04.666Z,100.00
2022-08-12T05:18:29.004Z,100.00
2022-08-12T05:20:59.239Z,100.00
2022-08-12T05:23:27.759Z,100.00
2022-08-12T05:25:59.204Z,100.00
2022-08-12T05:28:27.981Z,100.00
2022-08-12T05:30:56.852Z,100.00
2022-08-12T05:33:33.215Z,100.00
2022-08-12T05:36:00.165Z,100.00
2022-08-12T05:38:45.709Z,100.00
2022-08-12T05:41:21.994Z,100.00
2022-08-12T05:44:05.774Z,100.00
2022-08-12T05:46:34.920Z,100.00
2022-08-12T05:49:02.299Z,100.00
2022-08-12T05:51:40.303Z,100.00
2022-08-12T05:54:11.139Z,100.00
2022-08-12T05:56:40.023Z,100.00
2022-08-12T05:59:07.911Z,100.00
2022-08-12T06:02:11.458Z,100.00
2022-08-12T06:04:22.824Z,100.00
2022-08-12T06:06:53.117Z,100.00
2022-08-12T06:09:22.320Z,100.00
2022-08-12T06:12:06.226Z,100.00
2022-08-12T06:14:36.733Z,100.00
2022-08-12T06:17:05.457Z,100.00
2022-08-12T06:20:26.592Z,100.00
2022-08-12T06:22:19.665Z,100.00
2022-08-12T06:24:48.407Z,100.00
2022-08-12T06:27:17.808Z,100.00
2022-08-12T06:30:07.449Z,100.00
2022-08-12T06:32:42.852Z,100.00
2022-08-12T06:35:25.221Z,100.00
2022-08-12T06:37:56.596Z,100.00
2022-08-12T06:40:44.007Z,100.00
2022-08-12T06:43:11.110Z,100.00
2022-08-12T06:45:46.694Z,100.00
2022-08-12T06:48:14.621Z,100.00
2022-08-12T06:50:42.461Z,100.00
2022-08-12T06:53:12.889Z,100.00
2022-08-12T06:55:57.898Z,100.00
2022-08-12T06:58:30.337Z,100.00
2022-08-12T07:00:58.595Z,100.00
2022-08-12T07:03:28.790Z,100.00
2022-08-12T07:06:02.489Z,100.00
2022-08-12T07:08:32.649Z,100.00
2022-08-12T07:11:07.793Z,100.00
2022-08-12T07:14:02.459Z,100.00
2022-08-12T07:16:52.410Z,100.00
2022-08-12T07:19:20.767Z,100.00
2022-08-12T07:21:59.824Z,100.00
2022-08-12T07:24:30.074Z,100.00
2022-08-12T07:26:57.286Z,100.00
2022-08-12T07:29:26.021Z,100.00
2022-08-12T07:32:14.287Z,100.00
2022-08-12T07:34:42.805Z,100.00
2022-08-12T07:37:09.847Z,100.00
2022-08-12T07:39:36.922Z,100.00
2022-08-12T07:42:19.893Z,98.40
2022-08-12T07:44:47.291Z,100.00
2022-08-12T07:47:18.782Z,100.00
2022-08-12T07:50:05.404Z,100.00
2022-08-12T07:52:42.717Z,82.49
2022-08-12T07:55:14.381Z,85.72
2022-08-12T07:58:00.778Z,100.00
2022-08-12T08:00:31.834Z,100.00
2022-08-12T08:02:59.321Z,100.00
2022-08-12T08:05:34.574Z,92.81
2022-08-12T08:08:02.436Z,100.00
2022-08-12T08:10:30.910Z,83.73
2022-08-12T08:12:59.595Z,100.00
2022-08-12T08:16:01.216Z,100.00
2022-08-12T08:18:26.742Z,100.00
2022-08-12T08:20:56.074Z,100.00
2022-08-12T08:23:43.655Z,100.00
2022-08-12T08:26:16.039Z,100.00
2022-08-12T08:28:44.001Z,100.00
2022-08-12T08:31:13.015Z,100.00
2022-08-12T08:34:05.250Z,100.00
2022-08-12T08:36:29.041Z,70.57
2022-08-12T08:38:58.181Z,100.00
2022-08-12T08:42:19.029Z,100.00
2022-08-12T08:44:38.135Z,88.89
2022-08-12T08:47:11.231Z,100.00
2022-08-12T08:49:39.488Z,84.73
2022-08-12T08:52:09.030Z,100.00
2022-08-12T08:54:37.842Z,100.00
2022-08-12T08:57:08.604Z,98.69
2022-08-12T08:59:36.210Z,74.00
2022-08-12T09:02:04.178Z,85.91
2022-08-12T09:05:12.547Z,90.24
2022-08-12T09:07:51.324Z,100.00
2022-08-12T09:10:23.495Z,100.00
2022-08-12T09:13:23.192Z,82.32
2022-08-12T09:15:57.519Z,78.46
2022-08-12T09:18:33.354Z,79.99
2022-08-12T09:21:02.001Z,77.33
2022-08-12T09:26:20.444Z,98.68
2022-08-12T09:32:08.042Z,75.55
2022-08-12T09:34:26.426Z,87.35
2022-08-12T09:37:00.566Z,71.25
2022-08-12T09:40:05.244Z,92.38
2022-08-12T09:42:43.470Z,87.11
2022-08-12T09:45:24.112Z,82.17
2022-08-12T09:48:09.585Z,75.09
2022-08-12T09:50:36.900Z,62.29
2022-08-12T09:53:15.538Z,64.21
2022-08-12T09:56:05.879Z,61.09
2022-08-12T09:58:58.212Z,79.94
2022-08-12T10:01:24.388Z,94.91
2022-08-12T10:04:04.254Z,100.00
2022-08-12T10:06:36.311Z,84.14
2022-08-12T10:09:08.111Z,79.38
2022-08-12T10:12:12.178Z,58.02
2022-08-12T10:14:54.285Z,55.35
2022-08-12T10:17:25.809Z,66.46
2022-08-12T10:19:55.749Z,72.49
2022-08-12T10:22:39.141Z,55.05
2022-08-12T10:25:36.035Z,67.00
2022-08-12T10:28:39.437Z,71.73
2022-08-12T10:31:16.678Z,74.66
2022-08-12T10:34:05.195Z,72.16
2022-08-12T10:36:40.035Z,70.38
2022-08-12T10:40:01.575Z,79.76
2022-08-12T10:42:29.358Z,61.43
2022-08-12T10:45:01.941Z,75.66
2022-08-12T10:48:19.024Z,67.54
2022-08-12T10:50:33.573Z,68.10
2022-08-12T10:53:09.540Z,76.03
2022-08-12T10:55:36.635Z,59.17
2022-08-12T10:58:15.062Z,72.07
2022-08-12T11:01:25.824Z,80.80
2022-08-12T11:04:26.254Z,55.02
2022-08-12T11:07:05.236Z,64.40
2022-08-12T11:09:12.459Z,64.86
2022-08-12T11:12:35.404Z,49.44
2022-08-12T11:14:49.764Z,54.12
2022-08-12T11:17:43.847Z,61.60
2022-08-12T11:20:06.871Z,67.08
2022-08-12T11:22:35.212Z,64.23
2022-08-12T11:25:02.407Z,54.52
2022-08-12T11:27:37.829Z,49.61
2022-08-12T11:30:30.527Z,55.64
2022-08-12T11:32:52.543Z,48.44
2022-08-12T11:35:20.958Z,52.44
2022-08-12T11:37:59.005Z,47.86
2022-08-12T11:40:26.555Z,49.40
2022-08-12T11:43:01.857Z,44.09
2022-08-12T11:45:46.890Z,63.96
2022-08-12T11:48:15.692Z,49.66
2022-08-12T11:50:46.014Z,49.56
2022-08-12T11:53:57.119Z,41.62
2022-08-12T11:56:07.489Z,55.17
2022-08-12T12:01:58.109Z,59.15
2022-08-12T12:01:58.823Z,46.49
2022-08-12T12:04:12.849Z,52.53
2022-08-12T12:06:56.693Z,43.18
2022-08-12T12:09:52.858Z,41.33
2022-08-12T12:12:23.326Z,43.69
2022-08-12T12:14:54.469Z,40.83
2022-08-12T12:17:25.917Z,50.46
2022-08-12T12:19:54.962Z,51.26
2022-08-12T12:22:23.665Z,54.03
2022-08-12T12:24:54.259Z,47.20
2022-08-12T12:28:04.168Z,43.47
2022-08-12T12:30:18.437Z,44.43
2022-08-12T12:32:57.750Z,44.96
2022-08-12T12:36:06.172Z,45.15
2022-08-12T12:38:14.793Z,38.85
2022-08-12T12:40:50.288Z,45.55
2022-08-12T12:43:29.019Z,50.53
2022-08-12T12:46:06.034Z,52.25
2022-08-12T12:48:32.992Z,54.23
2022-08-12T12:51:48.372Z,42.97
2022-08-12T12:54:08.929Z,45.80
2022-08-12T12:56:41.939Z,44.42
2022-08-12T12:59:33.829Z,46.21
2022-08-12T13:02:07.941Z,41.96
2022-08-12T13:04:37.392Z,47.36
2022-08-12T13:07:06.515Z,38.80
2022-08-12T13:09:36.435Z,58.85
2022-08-12T13:12:08.825Z,41.74
2022-08-12T13:14:39.933Z,56.01
2022-08-12T13:17:14.495Z,55.36
2022-08-12T13:19:44.560Z,62.08
2022-08-12T13:22:20.543Z,50.03
2022-08-12T13:24:55.721Z,58.34
2022-08-12T13:27:41.631Z,62.89
2022-08-12T13:30:17.716Z,44.36
2022-08-12T13:32:57.739Z,38.80
2022-08-12T13:36:06.019Z,38.67
2022-08-12T13:38:44.098Z,51.41
2022-08-12T13:41:36.551Z,41.99
2022-08-12T13:44:06.968Z,41.06
2022-08-12T13:46:38.778Z,49.53
2022-08-12T13:49:07.754Z,50.05
2022-08-12T13:51:41.218Z,41.67
2022-08-12T13:54:15.592Z,50.62
2022-08-12T13:56:42.650Z,46.06
2022-08-12T13:59:20.358Z,37.86
2022-08-12T14:01:53.401Z,38.35
2022-08-12T14:04:25.069Z,52.50
2022-08-12T14:06:54.470Z,59.01
2022-08-12T14:09:21.465Z,59.42
2022-08-12T14:11:58.308Z,40.61
2022-08-12T14:14:31.474Z,46.98
2022-08-12T14:17:09.870Z,56.37
2022-08-12T14:19:48.805Z,56.88
2022-08-12T14:22:20.134Z,42.29
2022-08-12T14:24:47.191Z,61.27
2022-08-12T14:27:14.254Z,60.92
2022-08-12T14:30:15.058Z,43.09
2022-08-12T14:32:45.326Z,46.67
2022-08-12T14:35:13.343Z,41.35
2022-08-12T14:37:55.463Z,60.37
2022-08-12T14:40:30.173Z,54.11
2022-08-12T14:43:02.730Z,40.80
2022-08-12T14:45:45.149Z,39.78
2022-08-12T14:48:24.038Z,40.63
2022-08-12T14:51:09.679Z,38.55
2022-08-12T14:59:57.131Z,64.00
2022-08-12T15:02:22.185Z,42.31
2022-08-12T15:04:55.876Z,48.07
2022-08-12T15:07:34.469Z,44.09
2022-08-12T15:10:10.037Z,55.69
2022-08-12T15:12:40.716Z,51.55
2022-08-12T15:15:10.347Z,43.52
2022-08-12T15:17:39.274Z,60.64
2022-08-12T15:20:28.413Z,55.84
2022-08-12T15:22:56.546Z,44.62
2022-08-12T15:25:28.648Z,48.73
2022-08-12T15:28:04.757Z,54.79
2022-08-12T15:30:37.139Z,62.03
2022-08-12T15:33:12.625Z,66.71
2022-08-12T15:35:52.093Z,66.71
2022-08-12T15:38:21.335Z,64.43
2022-08-12T15:40:51.174Z,45.17
2022-08-12T15:43:35.655Z,47.29
2022-08-12T15:46:08.057Z,56.15
2022-08-12T15:48:44.175Z,57.37
2022-08-12T15:51:59.012Z,46.45
2022-08-12T15:54:30.756Z,55.27
2022-08-12T15:57:08.073Z,54.87
2022-08-12T16:00:00.099Z,56.95
2022-08-12T16:02:27.259Z,48.49
2022-08-12T16:04:57.589Z,53.79
2022-08-12T16:07:30.046Z,58.87
2022-08-12T16:10:07.089Z,58.97
2022-08-12T16:12:54.525Z,46.38
2022-08-12T16:15:26.252Z,43.48
2022-08-12T16:18:14.681Z,44.97
2022-08-12T16:20:46.411Z,61.41
2022-08-12T16:23:35.909Z,42.53
2022-08-12T16:26:14.596Z,63.99
2022-08-12T16:28:47.394Z,46.58
2022-08-12T16:31:22.695Z,60.83
2022-08-12T16:33:59.068Z,49.20
2022-08-12T16:36:30.674Z,48.82
2022-08-12T16:39:01.675Z,42.72
2022-08-12T16:41:37.940Z,54.84
2022-08-12T16:44:08.795Z,47.22
2022-08-12T16:46:37.534Z,44.25
2022-08-12T16:49:13.309Z,62.13
2022-08-12T16:51:46.780Z,63.00
2022-08-12T16:54:18.362Z,67.96
2022-08-12T16:56:51.126Z,70.26
2022-08-12T16:59:31.086Z,70.89
2022-08-12T17:02:33.365Z,74.63
2022-08-12T17:05:04.542Z,77.39
2022-08-12T17:07:43.799Z,64.57
2022-08-12T17:10:18.180Z,57.75
2022-08-12T17:13:09.435Z,67.14
2022-08-12T17:15:57.057Z,52.40
2022-08-12T17:18:43.881Z,49.08
2022-08-12T17:21:20.124Z,73.82
2022-08-12T17:24:10.520Z,55.66
2022-08-12T17:26:44.893Z,68.66
2022-08-12T17:29:24.049Z,41.93
2022-08-12T17:32:08.616Z,63.49
2022-08-12T17:34:54.961Z,46.44
2022-08-12T17:37:23.883Z,53.75
2022-08-12T17:40:15.483Z,59.93
2022-08-12T17:42:47.691Z,63.13
2022-08-12T17:45:19.688Z,46.00
2022-08-12T17:48:04.490Z,41.44
2022-08-12T17:50:45.265Z,54.21
2022-08-12T17:53:16.575Z,42.65
2022-08-12T17:55:51.414Z,63.86
2022-08-12T17:58:38.010Z,50.68
2022-08-12T18:01:07.923Z,62.68
2022-08-12T18:04:04.396Z,42.52
2022-08-12T18:06:28.650Z,59.28
2022-08-12T18:08:59.365Z,45.56
2022-08-12T18:12:05.991Z,63.45
2022-08-12T18:14:36.887Z,44.11
2022-08-12T18:17:08.584Z,56.93
2022-08-12T18:20:07.076Z,63.13
2022-08-12T18:22:30.765Z,49.45
2022-08-12T18:25:08.111Z,56.96
2022-08-12T18:28:16.111Z,53.23
2022-08-12T18:30:52.748Z,56.05
2022-08-12T18:33:26.104Z,72.09
2022-08-12T18:36:00.864Z,73.82
2022-08-12T18:38:31.350Z,60.99
2022-08-12T18:41:21.950Z,54.10
2022-08-12T18:44:12.134Z,45.22
2022-08-12T18:47:01.394Z,73.61
2022-08-12T18:49:38.646Z,53.86
2022-08-12T18:52:08.700Z,79.44
2022-08-12T18:54:48.970Z,83.44
2022-08-12T18:58:06.019Z,49.85
2022-08-12T19:00:21.443Z,81.10
2022-08-12T19:02:53.143Z,78.10
2022-08-12T19:05:20.682Z,86.47
2022-08-12T19:08:00.820Z,89.17
2022-08-12T19:10:31.169Z,88.94
2022-08-12T19:13:23.324Z,87.60
2022-08-12T19:15:57.442Z,84.48
2022-08-12T19:18:29.773Z,64.70
2022-08-12T19:21:11.866Z,88.80
2022-08-12T19:23:44.148Z,88.15
2022-08-12T19:26:13.206Z,96.93
2022-08-12T19:28:41.321Z,97.50
2022-08-12T19:31:56.414Z,91.36
2022-08-12T19:35:32.843Z,95.20
2022-08-12T19:38:04.236Z,87.92
2022-08-12T19:40:30.598Z,83.58
2022-08-12T19:43:13.327Z,86.66
2022-08-12T19:45:56.185Z,96.43
2022-08-12T19:48:30.416Z,89.98
2022-08-12T19:50:58.133Z,79.23
2022-08-12T19:53:27.746Z,84.52
2022-08-12T19:55:57.310Z,81.46
2022-08-12T19:58:25.865Z,97.63
2022-08-12T20:00:55.479Z,89.53
2022-08-12T20:03:38.937Z,94.59
2022-08-12T20:06:15.521Z,100.00
2022-08-12T20:08:48.620Z,96.19
2022-08-12T20:12:11.398Z,74.33
2022-08-12T20:14:07.548Z,97.94
2022-08-12T20:19:52.073Z,87.41
2022-08-12T20:22:24.494Z,95.74
2022-08-12T20:25:14.006Z,90.50
2022-08-12T20:28:04.349Z,95.81
2022-08-12T20:30:59.060Z,92.33
2022-08-12T20:33:32.626Z,96.47
2022-08-12T20:36:40.881Z,97.36
2022-08-12T20:39:05.988Z,94.60
2022-08-12T20:41:58.854Z,99.12
2022-08-12T20:44:27.300Z,99.31
2022-08-12T20:47:19.673Z,97.56
2022-08-12T20:49:55.517Z,88.35
2022-08-12T20:52:30.210Z,98.36
2022-08-12T20:55:01.033Z,100.00
2022-08-12T20:57:37.543Z,71.48
2022-08-12T21:00:16.064Z,100.00
2022-08-12T21:02:50.089Z,99.84
2022-08-12T21:06:09.569Z,100.00
2022-08-12T21:08:27.203Z,100.00
2022-08-12T21:10:59.170Z,90.23
2022-08-12T21:13:26.712Z,96.30
2022-08-12T21:16:00.061Z,100.00
2022-08-12T21:18:28.641Z,100.00
2022-08-12T21:20:57.283Z,100.00
2022-08-12T21:23:25.580Z,100.00
2022-08-12T21:26:01.444Z,100.00
2022-08-12T21:28:31.689Z,100.00
2022-08-12T21:32:34.634Z,100.00
2022-08-12T21:34:08.864Z,100.00
2022-08-12T21:36:48.177Z,100.00
2022-08-12T21:39:35.285Z,100.00
2022-08-12T21:42:06.929Z,100.00
2022-08-12T21:45:48.035Z,100.00
2022-08-12T21:47:24.577Z,100.00
2022-08-12T21:50:06.674Z,100.00
2022-08-12T21:52:48.827Z,100.00
2022-08-12T21:55:18.310Z,100.00
2022-08-12T21:57:54.732Z,100.00
2022-08-12T22:00:35.038Z,100.00
2022-08-12T22:04:10.886Z,100.00
2022-08-12T22:06:30.519Z,100.00
2022-08-12T22:09:07.488Z,100.00
2022-08-12T22:11:41.847Z,100.00
2022-08-12T22:14:10.326Z,100.00
2022-08-12T22:16:51.277Z,100.00
2022-08-12T22:19:19.531Z,100.00
2022-08-12T22:21:48.211Z,100.00
2022-08-12T22:24:27.050Z,100.00
2022-08-12T22:27:14.464Z,100.00
2022-08-12T22:30:16.482Z,100.00
2022-08-12T22:32:49.932Z,100.00
2022-08-12T22:35:47.312Z,100.00
2022-08-12T22:38:25.009Z,100.00
2022-08-12T22:40:58.372Z,100.00
2022-08-12T22:44:01.076Z,100.00
2022-08-12T22:46:53.679Z,100.00
2022-08-12T22:49:48.667Z,100.00
2022-08-12T22:52:22.920Z,100.00
2022-08-12T22:55:02.621Z,100.00
2022-08-12T22:57:49.172Z,100.00
2022-08-12T23:00:24.022Z,100.00
2022-08-12T23:02:56.889Z,100.00
2022-08-12T23:05:36.785Z,100.00
2022-08-12T23:08:17.789Z,100.00
2022-08-12T23:10:46.391Z,100.00
2022-08-12T23:13:42.885Z,100.00
2022-08-12T23:16:18.146Z,100.00
2022-08-12T23:18:59.665Z,100.00
2022-08-12T23:22:03.358Z,100.00
2022-08-12T23:24:14.327Z,100.00
2022-08-12T23:27:03.868Z,100.00
2022-08-12T23:29:43.826Z,100.00
2022-08-12T23:32:35.750Z,100.00
2022-08-12T23:35:06.893Z,100.00
2022-08-12T23:37:46.582Z,100.00
2022-08-12T23:40:16.643Z,100.00
2022-08-12T23:42:45.335Z,100.00
2022-08-12T23:45:20.767Z,100.00
2022-08-12T23:48:01.550Z,100.00
2022-08-12T23:50:33.840Z,100.00
2022-08-12T23:53:06.734Z,100.00
2022-08-12T23:55:49.917Z,100.00
2022-08-12T23:58:25.839Z,100.00
